Time;durP1;ratioP1;P1;durP2;ratioP2;P2;SDS_P1;SDS_P2;PMS_P1;PMS_P2;Temp;Humidity;BMP_temperature;BMP_pressure;BME280_temperature;BME280_humidity;BME280_pressure;Samples;Min_cycle;Max_cycle;Signal;HPM_P1;HPM_P2
2023/03/12 00:02:00;;;;;;;12.65;6.70;;;0.20;92.20;;;;;;5036995;28;20041;-40
2023/03/12 00:04:30;;;;;;;6.25;3.72;;;0.20;92.20;;;;;;5035427;28;20040;-41
2023/03/12 00:06:55;;;;;;;7.25;4.13;;;0.30;92.20;;;;;;5034125;28;20041;-41
2023/03/12 00:09:23;;;;;;;13.40;5.47;;;0.20;92.10;;;;;;5033823;28;20021;-41
2023/03/12 00:11:53;;;;;;;6.72;4.63;;;0.20;92.20;;;;;;5034969;28;20083;-45
2023/03/12 00:14:20;;;;;;;8.63;4.63;;;0.20;92.10;;;;;;5035070;28;20628;-41
2023/03/12 00:16:48;;;;;;;12.88;4.25;;;0.10;92.10;;;;;;5035234;28;20044;-41
2023/03/12 00:19:15;;;;;;;7.10;4.13;;;0.10;92.10;;;;;;5051103;28;20060;-42
2023/03/12 00:21:42;;;;;;;7.70;4.82;;;0.10;92.10;;;;;;5054924;28;20091;-42
2023/03/12 00:24:10;;;;;;;9.77;4.60;;;0.10;92.00;;;;;;5055310;28;20036;-43
2023/03/12 00:26:38;;;;;;;8.55;5.45;;;0.00;92.00;;;;;;5042741;28;20375;-43
2023/03/12 00:29:10;;;;;;;7.68;4.63;;;0.00;91.90;;;;;;5034650;28;20029;-42
2023/03/12 00:31:36;;;;;;;10.13;4.60;;;0.00;91.90;;;;;;5034665;28;20480;-42
2023/03/12 00:34:03;;;;;;;6.63;4.10;;;0.00;91.90;;;;;;5048164;28;20143;-42
2023/03/12 00:36:39;;;;;;;9.80;4.97;;;0.00;91.90;;;;;;5053851;28;20021;-43
2023/03/12 00:39:07;;;;;;;7.65;5.10;;;0.00;91.90;;;;;;5038450;28;20462;-42
2023/03/12 00:41:32;;;;;;;7.65;4.47;;;0.00;91.90;;;;;;5034869;28;20033;-42
2023/03/12 00:44:01;;;;;;;7.28;4.85;;;0.00;91.90;;;;;;5035079;28;20037;-42
2023/03/12 00:46:30;;;;;;;7.18;4.45;;;0.00;91.90;;;;;;5034656;28;20044;-42
2023/03/12 00:48:58;;;;;;;6.10;4.60;;;0.00;91.90;;;;;;5032910;28;20022;-42
2023/03/12 00:51:26;;;;;;;8.52;4.70;;;0.00;91.80;;;;;;5034515;28;20038;-45
2023/03/12 00:53:54;;;;;;;7.57;4.55;;;0.00;91.80;;;;;;5034981;28;20018;-44
2023/03/12 00:56:20;;;;;;;9.00;5.07;;;0.00;91.80;;;;;;5034667;28;20119;-43
2023/03/12 00:58:47;;;;;;;7.38;4.80;;;0.00;91.80;;;;;;5034026;28;20477;-41
2023/03/12 01:01:15;;;;;;;7.82;4.32;;;0.00;91.80;;;;;;5033777;28;20044;-42
2023/03/12 01:03:42;;;;;;;7.60;3.72;;;0.00;91.90;;;;;;5034410;28;20517;-42
2023/03/12 01:06:08;;;;;;;9.38;5.20;;;0.00;91.90;;;;;;5034247;28;20041;-42
2023/03/12 01:08:39;;;;;;;9.57;4.75;;;0.00;91.90;;;;;;5034294;28;20036;-44
2023/03/12 01:11:06;;;;;;;8.45;5.20;;;0.00;91.90;;;;;;5033814;28;20053;-46
2023/03/12 01:13:32;;;;;;;8.10;4.50;;;0.00;92.00;;;;;;5034435;28;20056;-42
2023/03/12 01:16:01;;;;;;;7.38;4.47;;;0.00;91.90;;;;;;5033703;28;20041;-42
2023/03/12 01:18:28;;;;;;;9.25;4.57;;;0.00;91.90;;;;;;5034064;28;20029;-43
2023/03/12 01:20:55;;;;;;;11.13;5.03;;;0.00;91.90;;;;;;5034219;28;20040;-41
2023/03/12 01:23:22;;;;;;;10.15;5.85;;;0.00;91.90;;;;;;5033387;28;20068;-42
2023/03/12 01:25:51;;;;;;;9.32;4.95;;;0.00;91.90;;;;;;5032472;28;20053;-43
2023/03/12 01:28:17;;;;;;;10.13;6.28;;;0.00;91.90;;;;;;5033203;28;20462;-42
2023/03/12 01:30:46;;;;;;;13.52;5.90;;;-3276.70;91.90;;;;;;5033115;28;20038;-41
2023/03/12 01:33:13;;;;;;;7.63;4.65;;;-3276.70;91.90;;;;;;5033143;28;20030;-41
2023/03/12 01:35:40;;;;;;;9.48;5.07;;;-3276.70;91.90;;;;;;5033090;28;20440;-42
2023/03/12 01:38:09;;;;;;;8.82;6.45;;;-3276.70;92.00;;;;;;5032849;28;20025;-43
2023/03/12 01:40:37;;;;;;;9.02;5.38;;;-3276.70;91.90;;;;;;5032628;28;20427;-42
2023/03/12 01:43:26;;;;;;;12.50;6.63;;;-3276.70;92.00;;;;;;5032737;28;20041;-44
2023/03/12 01:46:20;;;;;;;8.65;5.45;;;-3276.70;92.00;;;;;;5033498;28;20038;-42
2023/03/12 01:49:07;;;;;;;10.23;5.32;;;-3276.70;92.10;;;;;;5032893;28;20021;-44
2023/03/12 01:52:04;;;;;;;9.25;6.43;;;-3276.70;92.20;;;;;;5032354;28;20045;-42
2023/03/12 01:54:52;;;;;;;7.97;6.22;;;-3276.70;92.30;;;;;;5032723;28;20124;-41
2023/03/12 01:57:26;;;;;;;9.93;6.18;;;0.00;92.20;;;;;;5033387;28;20494;-41
2023/03/12 01:59:58;;;;;;;10.52;5.15;;;0.00;92.30;;;;;;5032368;28;20037;-41
2023/03/12 02:02:27;;;;;;;14.95;6.90;;;0.00;92.20;;;;;;5052387;28;20505;-42
2023/03/12 02:05:10;;;;;;;8.45;5.85;;;0.00;92.30;;;;;;5053379;28;20036;-43
2023/03/12 02:07:38;;;;;;;13.48;6.03;;;0.00;92.40;;;;;;5049121;28;20034;-41
2023/03/12 02:10:08;;;;;;;8.35;5.85;;;0.00;92.40;;;;;;5031259;28;20057;-41
2023/03/12 02:12:36;;;;;;;8.10;6.82;;;0.00;92.40;;;;;;5033151;28;20029;-41
2023/03/12 02:15:02;;;;;;;13.77;7.00;;;0.00;92.40;;;;;;5033448;28;20041;-41
2023/03/12 02:17:32;;;;;;;9.55;6.60;;;0.00;92.40;;;;;;5033074;28;20025;-42
2023/03/12 02:20:20;;;;;;;9.68;6.78;;;0.00;92.40;;;;;;5033349;28;20049;-41
2023/03/12 02:23:20;;;;;;;11.85;6.28;;;0.00;92.20;;;;;;5032984;28;20025;-43
2023/03/12 02:25:50;;;;;;;8.35;6.72;;;-3276.70;92.30;;;;;;5024415;28;20073;-41
2023/03/12 02:28:25;;;;;;;8.32;5.90;;;-3276.70;92.30;;;;;;5031746;28;20041;-41
2023/03/12 02:31:01;;;;;;;15.40;8.38;;;-3276.70;92.30;;;;;;5032297;28;20025;-42
2023/03/12 02:33:26;;;;;;;7.70;5.60;;;0.00;92.30;;;;;;5031577;28;20470;-43
2023/03/12 02:35:54;;;;;;;8.68;5.68;;;-3276.70;92.40;;;;;;5032685;28;20037;-42
2023/03/12 02:38:48;;;;;;;10.88;5.88;;;0.00;92.30;;;;;;5033090;28;20092;-41
2023/03/12 02:41:34;;;;;;;12.70;6.03;;;-3276.70;92.20;;;;;;5031955;28;20045;-44
2023/03/12 02:44:17;;;;;;;8.95;6.15;;;-3276.60;92.20;;;;;;5032067;28;20129;-41
2023/03/12 02:46:52;;;;;;;8.90;6.90;;;-3276.60;92.20;;;;;;5032849;28;20040;-42
2023/03/12 02:49:21;;;;;;;10.65;6.63;;;-3276.60;92.30;;;;;;5031256;28;20045;-42
2023/03/12 02:51:50;;;;;;;8.43;5.60;;;-3276.60;92.30;;;;;;5030986;28;20029;-43
2023/03/12 02:54:19;;;;;;;11.57;6.67;;;-3276.60;92.30;;;;;;5031313;28;20466;-42
2023/03/12 02:56:49;;;;;;;8.68;5.97;;;-3276.60;92.30;;;;;;5031416;28;20033;-42
2023/03/12 02:59:19;;;;;;;13.13;7.30;;;-3276.60;92.30;;;;;;5033025;28;20035;-43
2023/03/12 03:01:50;;;;;;;13.15;6.25;;;-3276.60;92.20;;;;;;5032024;28;20040;-41
2023/03/12 03:04:19;;;;;;;9.85;6.18;;;-3276.60;92.30;;;;;;5032417;28;20477;-41
2023/03/12 03:06:47;;;;;;;7.50;6.13;;;-3276.60;92.30;;;;;;5015445;28;20033;-42
2023/03/12 03:09:14;;;;;;;11.07;6.35;;;-3276.50;92.20;;;;;;5032628;28;20057;-41
2023/03/12 03:11:43;;;;;;;7.85;5.78;;;-3276.50;92.20;;;;;;5049235;28;20052;-41
2023/03/12 03:14:09;;;;;;;10.55;5.82;;;-3276.50;92.10;;;;;;5052352;28;20029;-42
2023/03/12 03:16:36;;;;;;;8.77;6.03;;;-3276.50;92.20;;;;;;5051386;28;20025;-42
2023/03/12 03:19:03;;;;;;;9.65;6.63;;;-3276.50;92.20;;;;;;5032506;28;20029;-42
2023/03/12 03:21:29;;;;;;;11.82;6.05;;;-3276.50;92.20;;;;;;5048178;28;20058;-45
2023/03/12 03:23:56;;;;;;;9.13;5.90;;;-3276.50;92.20;;;;;;5036582;28;20057;-42
2023/03/12 03:26:23;;;;;;;11.13;6.13;;;-3276.50;92.20;;;;;;5048053;28;20060;-42
2023/03/12 03:28:52;;;;;;;11.73;5.68;;;-3276.50;92.20;;;;;;5056201;28;20029;-41
2023/03/12 03:31:18;;;;;;;;;;;-3276.50;92.20;;;;;;5053028;28;20064;-42
2023/03/12 03:33:45;;;;;;;9.43;5.30;;;-3276.50;92.20;;;;;;5035355;28;19909;-41
2023/03/12 03:36:13;;;;;;;8.85;5.30;;;-3276.50;92.10;;;;;;5044327;28;20028;-41
2023/03/12 03:38:45;;;;;;;10.35;5.90;;;-3276.50;92.00;;;;;;5055368;28;20092;-41
2023/03/12 03:41:12;;;;;;;9.13;6.38;;;-3276.40;92.00;;;;;;5054559;28;20446;-42
2023/03/12 03:43:40;;;;;;;10.10;5.60;;;-3276.40;92.00;;;;;;5036937;28;20521;-41
2023/03/12 03:46:06;;;;;;;8.93;5.43;;;-3276.40;92.00;;;;;;5051057;28;20132;-41
2023/03/12 03:48:33;;;;;;;9.50;5.32;;;-3276.40;91.90;;;;;;5035913;28;20159;-41
2023/03/12 03:51:04;;;;;;;9.65;5.03;;;-3276.40;91.90;;;;;;5035470;28;20025;-41
2023/03/12 03:53:30;;;;;;;7.80;5.38;;;-3276.30;91.80;;;;;;5050877;28;20124;-42
2023/03/12 03:55:57;;;;;;;9.77;5.00;;;-3276.30;92.00;;;;;;5038407;28;20025;-41
2023/03/12 03:58:24;;;;;;;8.98;4.72;;;-3276.40;92.00;;;;;;5037128;28;20471;-41
2023/03/12 04:00:50;;;;;;;8.52;5.28;;;-3276.40;92.10;;;;;;5035959;28;20072;-42
2023/03/12 04:03:18;;;;;;;8.05;5.10;;;-3276.40;92.00;;;;;;5047696;28;20065;-41
2023/03/12 04:05:44;;;;;;;8.60;4.88;;;-3276.40;92.20;;;;;;5055727;28;20343;-42
2023/03/12 04:08:12;;;;;;;9.85;4.95;;;-3276.40;92.10;;;;;;5054526;28;20040;-42
2023/03/12 04:10:42;;;;;;;6.10;4.68;;;-3276.50;92.10;;;;;;5054381;28;20473;-42
2023/03/12 04:13:07;;;;;;;8.35;4.85;;;-3276.50;92.00;;;;;;5034533;28;20029;-43
2023/03/12 04:15:34;;;;;;;7.80;4.90;;;-3276.50;92.00;;;;;;5035632;28;20033;-43
2023/03/12 04:18:00;;;;;;;8.20;4.63;;;-3276.50;92.00;;;;;;5034325;28;20510;-42
2023/03/12 04:20:31;;;;;;;8.55;4.45;;;-3276.60;92.00;;;;;;5033949;28;20058;-42
2023/03/12 04:22:59;;;;;;;13.65;4.97;;;-3276.60;92.00;;;;;;5038915;28;20351;-41
2023/03/12 04:25:27;;;;;;;8.77;4.90;;;-3276.60;92.00;;;;;;5035236;28;20030;-42
2023/03/12 04:27:54;;;;;;;9.13;5.75;;;-3276.60;91.90;;;;;;5035157;28;20037;-41
2023/03/12 04:30:21;;;;;;;9.02;4.65;;;-3276.70;92.00;;;;;;5046981;28;20029;-41
2023/03/12 04:32:48;;;;;;;9.75;4.65;;;-3276.70;91.90;;;;;;5047961;28;20033;-41
2023/03/12 04:35:17;;;;;;;7.30;4.43;;;-3276.70;91.80;;;;;;5034092;28;20021;-41
2023/03/12 04:37:44;;;;;;;9.20;4.85;;;-3276.70;91.90;;;;;;5034945;28;20032;-41
2023/03/12 04:40:11;;;;;;;9.80;4.43;;;-3276.70;91.80;;;;;;5034870;28;20100;-41
2023/03/12 04:42:38;;;;;;;7.47;4.88;;;0.00;91.80;;;;;;5035089;28;20034;-41
2023/03/12 04:45:06;;;;;;;8.23;5.13;;;0.00;91.80;;;;;;5034847;28;20036;-41
2023/03/12 04:47:34;;;;;;;7.00;4.78;;;0.00;91.70;;;;;;5034991;28;20045;-41
2023/03/12 04:50:01;;;;;;;8.45;5.70;;;0.00;91.70;;;;;;5034688;28;20049;-41
2023/03/12 04:52:27;;;;;;;6.78;4.65;;;0.00;91.60;;;;;;5034288;28;20041;-42
2023/03/12 04:54:54;;;;;;;10.73;5.35;;;0.00;91.60;;;;;;5035047;28;20021;-42
2023/03/12 04:57:19;;;;;;;9.02;4.90;;;0.00;91.50;;;;;;5033716;28;20033;-43
2023/03/12 04:59:45;;;;;;;8.30;4.78;;;-3276.70;91.40;;;;;;5033691;28;20462;-42
2023/03/12 05:02:14;;;;;;;10.65;5.35;;;0.00;91.50;;;;;;5033356;28;20124;-41
2023/03/12 05:04:40;;;;;;;7.40;5.88;;;0.00;91.50;;;;;;5033637;28;20053;-41
2023/03/12 05:07:08;;;;;;;9.73;5.20;;;0.00;91.40;;;;;;5034575;28;20057;-41
2023/03/12 05:09:36;;;;;;;7.20;5.18;;;0.00;91.40;;;;;;5034388;28;20026;-41
2023/03/12 05:12:02;;;;;;;8.13;5.13;;;0.00;91.30;;;;;;5033451;28;20462;-41
2023/03/12 05:14:30;;;;;;;8.85;5.15;;;0.00;91.30;;;;;;5034490;28;20029;-42
2023/03/12 05:16:58;;;;;;;10.60;4.80;;;0.00;91.20;;;;;;5033551;28;20039;-42
2023/03/12 05:19:25;;;;;;;10.68;6.22;;;0.00;91.30;;;;;;5034445;28;20025;-42
2023/03/12 05:21:53;;;;;;;8.15;4.43;;;0.00;91.30;;;;;;5034234;28;20029;-42
2023/03/12 05:24:20;;;;;;;10.82;5.25;;;0.00;91.40;;;;;;5036844;28;20033;-42
2023/03/12 05:26:47;;;;;;;8.85;4.45;;;0.00;91.30;;;;;;5052887;28;20029;-42
2023/03/12 05:29:17;;;;;;;7.82;5.00;;;0.00;91.40;;;;;;5052681;28;20035;-41
2023/03/12 05:31:45;;;;;;;6.93;5.13;;;0.00;91.40;;;;;;5053700;28;20033;-41
2023/03/12 05:34:13;;;;;;;8.00;4.95;;;0.00;91.40;;;;;;5038864;28;20060;-41
2023/03/12 05:36:39;;;;;;;7.38;4.85;;;0.00;91.30;;;;;;5033453;28;20056;-41
2023/03/12 05:39:06;;;;;;;7.18;4.15;;;0.00;91.40;;;;;;5049215;28;20573;-42
2023/03/12 05:41:34;;;;;;;7.18;4.63;;;0.00;91.30;;;;;;5033861;28;20044;-42
2023/03/12 05:43:59;;;;;;;11.05;4.68;;;0.00;91.30;;;;;;5032771;28;20069;-41
2023/03/12 05:46:28;;;;;;;6.55;4.43;;;0.00;91.20;;;;;;5033540;28;20057;-41
2023/03/12 05:48:55;;;;;;;9.57;4.33;;;0.00;91.30;;;;;;5033635;28;20117;-43
2023/03/12 05:51:22;;;;;;;11.80;5.03;;;0.00;91.30;;;;;;5045398;28;20104;-42
2023/03/12 05:53:50;;;;;;;15.75;5.47;;;0.10;91.30;;;;;;5053378;28;20491;-41
2023/03/12 05:56:20;;;;;;;13.68;8.73;;;0.10;91.30;;;;;;5053612;28;20024;-41
2023/03/12 05:58:50;;;;;;;12.90;10.68;;;0.10;91.20;;;;;;5052333;28;20549;-42
2023/03/12 06:01:24;;;;;;;9.45;5.47;;;0.20;91.30;;;;;;5035129;28;20041;-41
2023/03/12 06:03:50;;;;;;;9.57;5.97;;;0.20;91.30;;;;;;5052381;28;20071;-41
2023/03/12 06:06:18;;;;;;;11.68;7.55;;;0.20;91.40;;;;;;5052298;28;20453;-42
2023/03/12 06:08:46;;;;;;;15.60;8.33;;;0.30;91.40;;;;;;5041403;28;20049;-41
2023/03/12 06:11:13;;;;;;;13.30;7.43;;;0.30;91.30;;;;;;5032172;28;20311;-41
2023/03/12 06:13:40;;;;;;;11.07;6.00;;;0.40;91.40;;;;;;5049280;28;20086;-41
2023/03/12 06:16:20;;;;;;;8.13;4.60;;;0.40;91.40;;;;;;5033266;28;20025;-42
2023/03/12 06:18:51;;;;;;;7.78;4.55;;;0.40;91.40;;;;;;5047309;28;20025;-41
2023/03/12 06:21:20;;;;;;;8.85;4.80;;;0.40;91.40;;;;;;5032317;28;20470;-41
2023/03/12 06:23:48;;;;;;;7.03;4.70;;;0.50;91.40;;;;;;5033331;28;20025;-40
2023/03/12 06:26:16;;;;;;;6.60;4.63;;;0.50;91.40;;;;;;5044792;28;20044;-41
2023/03/12 06:28:46;;;;;;;10.75;4.60;;;0.50;91.50;;;;;;5052985;28;20040;-40
2023/03/12 06:31:15;;;;;;;6.38;4.47;;;0.60;91.40;;;;;;5052491;28;20024;-40
2023/03/12 06:33:42;;;;;;;6.03;4.30;;;0.60;91.50;;;;;;5051354;28;20542;-41
2023/03/12 06:36:10;;;;;;;10.75;5.75;;;0.70;91.50;;;;;;5034968;28;20033;-41
2023/03/12 06:38:37;;;;;;;8.02;5.00;;;0.70;91.40;;;;;;5033032;28;20022;-40
2023/03/12 06:41:11;;;;;;;9.40;5.18;;;0.70;91.40;;;;;;5061681;28;20033;-40
2023/03/12 06:43:37;;;;;;;11.45;5.65;;;0.80;91.30;;;;;;5052917;28;20025;-42
2023/03/12 06:46:09;;;;;;;9.27;4.50;;;0.80;91.20;;;;;;5052798;28;20163;-40
2023/03/12 06:48:40;;;;;;;11.18;5.03;;;0.90;91.20;;;;;;5048646;28;20044;-40
2023/03/12 06:51:12;;;;;;;10.32;4.90;;;0.90;91.00;;;;;;5032678;28;20439;-40
2023/03/12 06:53:40;;;;;;;7.10;4.65;;;0.90;90.90;;;;;;5031847;28;20125;-41
2023/03/12 06:56:06;;;;;;;10.73;5.32;;;0.90;90.80;;;;;;5050574;28;20025;-40
2023/03/12 06:58:31;;;;;;;7.53;5.28;;;0.90;90.70;;;;;;5056580;28;20360;-40
2023/03/12 07:00:58;;;;;;;8.38;5.15;;;1.00;90.70;;;;;;5056824;28;20048;-41
2023/03/12 07:03:25;;;;;;;12.38;4.80;;;1.00;90.60;;;;;;5044186;28;20470;-41
2023/03/12 07:05:57;;;;;;;8.73;4.53;;;0.90;90.50;;;;;;5035710;28;20029;-40
2023/03/12 07:08:25;;;;;;;6.97;4.57;;;0.90;90.40;;;;;;5035979;28;20226;-41
2023/03/12 07:10:53;;;;;;;7.20;5.18;;;1.00;90.50;;;;;;5035465;28;20089;-40
2023/03/12 07:13:20;;;;;;;7.18;4.45;;;1.00;90.20;;;;;;5035950;28;20135;-41
2023/03/12 07:15:47;;;;;;;9.60;4.60;;;1.00;90.10;;;;;;5036686;28;20030;-41
2023/03/12 07:18:16;;;;;;;6.53;4.35;;;1.00;90.00;;;;;;5036492;28;20037;-42
2023/03/12 07:20:43;;;;;;;7.78;4.88;;;1.00;89.80;;;;;;5036429;28;20021;-41
2023/03/12 07:23:10;;;;;;;7.35;4.43;;;1.00;89.70;;;;;;5035658;28;20136;-41
2023/03/12 07:25:48;;;;;;;9.80;7.35;;;1.00;89.70;;;;;;5035718;28;20049;-42
2023/03/12 07:28:17;;;;;;;7.45;4.72;;;1.00;89.60;;;;;;5050651;28;20029;-41
2023/03/12 07:30:49;;;;;;;7.15;4.45;;;1.00;89.50;;;;;;5051659;28;20459;-41
2023/03/12 07:33:20;;;;;;;9.35;4.85;;;1.10;89.50;;;;;;5052011;28;20029;-44
2023/03/12 07:35:48;;;;;;;9.85;5.15;;;1.10;89.50;;;;;;5035427;28;20058;-41
2023/03/12 07:38:14;;;;;;;10.13;4.65;;;1.10;89.40;;;;;;5036494;28;20362;-42
2023/03/12 07:40:40;;;;;;;9.13;4.88;;;1.10;89.20;;;;;;5056133;28;20025;-42
2023/03/12 07:43:11;;;;;;;9.43;3.88;;;1.10;89.20;;;;;;5056167;28;20079;-44
2023/03/12 07:45:40;;;;;;;6.93;4.68;;;1.20;89.20;;;;;;5056075;28;20021;-45
2023/03/12 07:48:08;;;;;;;11.65;4.30;;;1.20;88.70;;;;;;5034236;28;20112;-46
2023/03/12 07:50:37;;;;;;;12.23;4.90;;;1.20;88.70;;;;;;5034928;28;20033;-45
2023/03/12 07:53:04;;;;;;;12.13;4.82;;;1.30;88.60;;;;;;5017949;28;20116;-46
2023/03/12 07:55:33;;;;;;;6.50;4.65;;;1.30;88.40;;;;;;5051004;28;20030;-49
2023/03/12 07:58:00;;;;;;;8.35;4.82;;;1.40;88.10;;;;;;5018314;28;20104;-56
2023/03/12 08:00:28;;;;;;;8.05;4.30;;;1.50;87.90;;;;;;5035779;28;20029;-55
2023/03/12 08:02:55;;;;;;;9.52;4.45;;;1.50;87.40;;;;;;5034461;28;20095;-56
2023/03/12 08:05:23;;;;;;;7.38;4.07;;;1.60;87.40;;;;;;5035058;28;20060;-55
2023/03/12 08:07:53;;;;;;;9.07;5.68;;;1.60;87.10;;;;;;5035597;28;20029;-59
2023/03/12 08:10:23;;;;;;;7.47;4.60;;;1.60;86.90;;;;;;5040399;28;20160;-57
2023/03/12 08:12:53;;;;;;;10.05;4.97;;;1.60;86.90;;;;;;5055534;28;20397;-60
2023/03/12 08:15:19;;;;;;;9.32;4.45;;;1.70;87.00;;;;;;5055319;28;20052;-61
2023/03/12 08:17:47;;;;;;;7.15;4.30;;;1.70;86.90;;;;;;5054156;28;20494;-60
2023/03/12 08:20:14;;;;;;;10.40;4.70;;;1.90;86.90;;;;;;5052565;28;20119;-60
2023/03/12 08:22:40;;;;;;;8.43;4.93;;;2.00;86.90;;;;;;5035247;28;20490;-61
2023/03/12 08:25:09;;;;;;;7.47;4.55;;;2.10;86.20;;;;;;5035038;28;20042;-61
2023/03/12 08:27:36;;;;;;;8.57;5.60;;;2.10;85.90;;;;;;5017209;28;20044;-61
2023/03/12 08:30:05;;;;;;;9.63;5.50;;;2.20;85.80;;;;;;5042039;28;20041;-60
2023/03/12 08:32:31;;;;;;;6.45;4.95;;;2.30;85.60;;;;;;5054141;28;20036;-61
2023/03/12 08:34:57;;;;;;;11.75;6.15;;;2.40;85.00;;;;;;5050221;28;20025;-61
2023/03/12 08:37:24;;;;;;;10.10;5.70;;;2.50;84.90;;;;;;5035106;28;20022;-61
2023/03/12 08:39:54;;;;;;;8.45;5.75;;;2.60;85.00;;;;;;5034858;28;20462;-61
2023/03/12 08:42:25;;;;;;;7.47;5.20;;;2.70;84.30;;;;;;5035062;28;20041;-59
2023/03/12 08:44:52;;;;;;;9.55;5.18;;;2.90;84.20;;;;;;5034751;28;20120;-57
2023/03/12 08:47:24;;;;;;;8.75;5.90;;;2.80;83.80;;;;;;5033673;28;20063;-50
2023/03/12 08:49:49;;;;;;;9.48;5.50;;;2.70;83.50;;;;;;5034634;28;20136;-50
2023/03/12 08:52:19;;;;;;;10.50;5.55;;;2.70;83.70;;;;;;5044365;28;20108;-49
2023/03/12 08:54:46;;;;;;;13.75;5.25;;;2.70;83.90;;;;;;5054618;28;20308;-47
2023/03/12 08:57:14;;;;;;;7.45;5.20;;;2.70;83.90;;;;;;5053815;28;20477;-47
2023/03/12 08:59:43;;;;;;;15.02;5.85;;;2.80;83.30;;;;;;5050584;28;20112;-46
2023/03/12 09:02:13;;;;;;;7.45;5.65;;;2.80;83.20;;;;;;5034679;28;20035;-46
2023/03/12 09:04:40;;;;;;;8.32;5.40;;;2.90;83.60;;;;;;5034523;28;20700;-46
2023/03/12 09:07:08;;;;;;;7.57;5.03;;;2.90;83.30;;;;;;5033691;28;20095;-45
2023/03/12 09:09:36;;;;;;;7.32;4.75;;;3.10;82.80;;;;;;5034341;28;20033;-45
2023/03/12 09:12:05;;;;;;;8.00;5.07;;;3.10;82.40;;;;;;5034308;28;20026;-44
2023/03/12 09:14:32;;;;;;;7.63;4.75;;;3.20;82.40;;;;;;5034247;28;20036;-42
2023/03/12 09:17:01;;;;;;;7.28;4.85;;;3.30;82.40;;;;;;5034111;28;20017;-43
2023/03/12 09:19:27;;;;;;;7.13;5.30;;;3.50;82.40;;;;;;5033403;28;20022;-41
2023/03/12 09:21:56;;;;;;;8.13;4.97;;;3.70;81.90;;;;;;5032899;28;20037;-42
2023/03/12 09:24:22;;;;;;;7.75;5.07;;;3.80;80.90;;;;;;5034235;28;20049;-41
2023/03/12 09:26:51;;;;;;;7.55;4.38;;;3.80;81.10;;;;;;5033121;28;20060;-40
2023/03/12 09:29:18;;;;;;;6.10;4.68;;;3.90;81.40;;;;;;5034216;28;20025;-40
2023/03/12 09:31:44;;;;;;;6.13;4.38;;;4.10;80.40;;;;;;5034032;28;20033;-40
2023/03/12 09:34:10;;;;;;;7.10;4.43;;;4.10;79.50;;;;;;5032853;28;20021;-40
2023/03/12 09:36:36;;;;;;;9.05;5.00;;;4.20;79.80;;;;;;5034013;28;20028;-40
2023/03/12 09:39:03;;;;;;;8.07;4.28;;;4.50;79.80;;;;;;5033956;28;20022;-44
2023/03/12 09:41:34;;;;;;;8.07;5.25;;;4.70;77.70;;;;;;5032954;28;20030;-41
2023/03/12 09:44:36;;;;;;;10.57;4.25;;;4.70;77.20;;;;;;5016365;28;20026;-42
2023/03/12 09:47:28;;;;;;;6.13;4.38;;;4.60;76.80;;;;;;5033621;28;20030;-41
2023/03/12 09:50:21;;;;;;;9.13;4.78;;;4.70;78.00;;;;;;5033832;28;20078;-42
2023/03/12 09:52:57;;;;;;;7.80;4.32;;;4.60;76.80;;;;;;5031253;28;20045;-41
2023/03/12 09:55:25;;;;;;;9.13;4.63;;;4.70;77.00;;;;;;5032651;28;20044;-42
2023/03/12 09:57:53;;;;;;;6.55;4.60;;;4.60;76.60;;;;;;5032705;28;20029;-45
2023/03/12 10:00:23;;;;;;;6.75;4.25;;;4.50;77.50;;;;;;5037343;28;20479;-43
2023/03/12 10:03:16;;;;;;;6.33;4.23;;;4.50;77.30;;;;;;5052324;28;20037;-46
2023/03/12 10:06:03;;;;;;;8.15;4.28;;;4.50;77.40;;;;;;5053371;28;20029;-45
2023/03/12 10:08:50;;;;;;;7.25;4.75;;;4.40;77.90;;;;;;5041294;28;20102;-43
2023/03/12 10:11:31;;;;;;;11.07;4.75;;;4.30;78.30;;;;;;5032994;28;20115;-43
2023/03/12 10:14:28;;;;;;;7.88;4.35;;;4.20;78.40;;;;;;5048893;28;20037;-43
2023/03/12 10:17:25;;;;;;;12.63;7.10;;;4.00;78.20;;;;;;5032183;28;20025;-42
2023/03/12 10:20:17;;;;;;;8.27;4.95;;;3.90;79.50;;;;;;5033213;28;20025;-43
2023/03/12 10:22:58;;;;;;;8.88;4.72;;;3.70;78.40;;;;;;5033142;28;20037;-42
2023/03/12 10:25:48;;;;;;;7.43;4.20;;;3.60;79.20;;;;;;5032158;28;20470;-44
2023/03/12 10:28:39;;;;;;;10.13;4.60;;;3.50;79.70;;;;;;5033230;28;20049;-42
2023/03/12 10:31:22;;;;;;;8.07;4.75;;;3.50;79.70;;;;;;5031809;28;20112;-42
2023/03/12 10:33:58;;;;;;;8.93;4.35;;;3.60;80.60;;;;;;5032039;28;20057;-43
2023/03/12 10:36:42;;;;;;;6.95;4.72;;;3.70;80.80;;;;;;5032017;28;20067;-43
2023/03/12 10:39:20;;;;;;;8.68;4.97;;;3.80;80.10;;;;;;5032108;28;20060;-42
2023/03/12 10:41:48;;;;;;;6.82;4.72;;;3.80;80.50;;;;;;5033032;28;20053;-42
2023/03/12 10:44:20;;;;;;;8.43;5.18;;;3.80;80.00;;;;;;5038341;28;20029;-42
2023/03/12 10:47:01;;;;;;;11.68;4.45;;;3.80;80.00;;;;;;5051908;28;20048;-42
2023/03/12 10:49:33;;;;;;;6.05;4.00;;;3.70;80.60;;;;;;5052855;28;20106;-42
2023/03/12 10:52:24;;;;;;;8.95;5.70;;;3.60;80.40;;;;;;5035682;28;20032;-43
2023/03/12 10:54:55;;;;;;;7.28;4.82;;;3.50;81.60;;;;;;5034175;28;20033;-42
2023/03/12 10:57:40;;;;;;;6.82;5.20;;;3.50;81.50;;;;;;5031991;28;20095;-43
2023/03/12 11:00:10;;;;;;;8.27;4.05;;;3.50;82.00;;;;;;5031700;28;20865;-42
2023/03/12 11:02:46;;;;;;;7.65;4.43;;;3.50;82.20;;;;;;5032861;28;20069;-43
2023/03/12 11:05:49;;;;;;;8.75;5.00;;;3.40;82.90;;;;;;5032826;28;20113;-43
2023/03/12 11:08:41;;;;;;;7.70;4.00;;;3.40;83.10;;;;;;5018988;28;20037;-43
2023/03/12 11:11:09;;;;;;;8.98;4.15;;;3.40;83.00;;;;;;5047864;28;20069;-43
2023/03/12 11:14:05;;;;;;;7.35;4.57;;;3.30;83.30;;;;;;5051773;28;20143;-43
2023/03/12 11:16:31;;;;;;;8.10;4.80;;;3.20;83.60;;;;;;5032598;28;20148;-42
2023/03/12 11:19:11;;;;;;;9.20;4.78;;;3.00;84.70;;;;;;5031689;28;20328;-46
2023/03/12 11:21:38;;;;;;;7.65;4.25;;;2.90;85.20;;;;;;5032593;28;20029;-56
2023/03/12 11:24:26;;;;;;;10.65;4.70;;;2.90;86.10;;;;;;5032862;28;20045;-58
2023/03/12 11:27:22;;;;;;;7.80;4.85;;;2.90;86.90;;;;;;5031603;28;20033;-60
2023/03/12 11:29:49;;;;;;;6.32;4.25;;;2.80;87.40;;;;;;5014977;28;20033;-58
2023/03/12 11:32:28;;;;;;;8.43;5.80;;;2.90;87.70;;;;;;5031641;28;20362;-59
2023/03/12 11:34:56;;;;;;;8.32;5.93;;;2.90;87.90;;;;;;5031698;28;20029;-58
2023/03/12 11:37:58;;;;;;;6.93;5.18;;;2.90;87.80;;;;;;5031388;28;20030;-56
2023/03/12 11:40:51;;;;;;;8.52;5.20;;;2.90;88.10;;;;;;5032594;28;20057;-56
2023/03/12 11:43:35;;;;;;;6.68;4.70;;;3.00;88.60;;;;;;5034180;28;20373;-53
2023/03/12 11:46:37;;;;;;;9.25;5.88;;;3.00;88.60;;;;;;5036139;28;20025;-55
2023/03/12 11:49:41;;;;;;;6.55;4.68;;;3.00;89.10;;;;;;5036000;28;20030;-57
2023/03/12 11:52:45;;;;;;;7.70;5.60;;;3.00;89.20;;;;;;5035761;28;20192;-56
2023/03/12 11:55:39;;;;;;;8.13;5.78;;;3.10;89.70;;;;;;5035851;28;20085;-54
2023/03/12 11:58:33;;;;;;;8.20;5.40;;;2.90;89.70;;;;;;5035902;28;20104;-50
2023/03/12 12:01:20;;;;;;;11.88;6.57;;;2.90;89.80;;;;;;5036756;28;20030;-55
2023/03/12 12:04:10;;;;;;;8.30;6.25;;;2.80;90.20;;;;;;5053917;28;20033;-59
2023/03/12 12:06:56;;;;;;;8.43;6.30;;;2.80;90.40;;;;;;5055771;28;20044;-58
2023/03/12 12:09:35;;;;;;;10.05;6.10;;;2.80;90.80;;;;;;5035674;28;20355;-53
2023/03/12 12:12:19;;;;;;;7.53;6.15;;;2.80;90.70;;;;;;5035435;28;20056;-54
2023/03/12 12:15:15;;;;;;;8.77;6.32;;;2.80;91.00;;;;;;5035615;28;20087;-54
2023/03/12 12:18:02;;;;;;;9.43;6.38;;;2.90;91.00;;;;;;5035337;28;20036;-57
2023/03/12 12:20:56;;;;;;;8.70;5.85;;;2.90;91.00;;;;;;5035292;28;20069;-55
2023/03/12 12:23:29;;;;;;;9.82;6.68;;;2.90;91.20;;;;;;5034972;28;20041;-57
2023/03/12 12:26:20;;;;;;;8.15;7.13;;;2.80;91.00;;;;;;5043180;28;20327;-55
2023/03/12 12:29:04;;;;;;;10.27;7.25;;;2.80;91.40;;;;;;5054484;28;20115;-54
2023/03/12 12:31:48;;;;;;;7.15;6.43;;;2.80;91.50;;;;;;5037456;28;20032;-57
2023/03/12 12:34:32;;;;;;;8.35;6.50;;;2.80;91.40;;;;;;5035370;28;20029;-56
2023/03/12 12:37:32;;;;;;;7.47;6.68;;;2.70;91.60;;;;;;5035139;28;20018;-54
2023/03/12 12:40:11;;;;;;;8.63;7.10;;;2.70;91.70;;;;;;5034815;28;20542;-56
2023/03/12 12:43:17;;;;;;;9.50;6.63;;;2.80;91.90;;;;;;5033882;28;20029;-55
2023/03/12 12:45:48;;;;;;;8.65;6.32;;;2.70;91.80;;;;;;5034943;28;20064;-54
2023/03/12 12:48:37;;;;;;;10.65;6.85;;;2.70;92.10;;;;;;5034290;28;20478;-52
2023/03/12 12:51:06;;;;;;;9.38;6.60;;;2.70;92.20;;;;;;5034875;28;20033;-49
2023/03/12 12:53:54;;;;;;;10.45;6.75;;;2.60;92.10;;;;;;5034073;28;20078;-53
2023/03/12 12:56:47;;;;;;;10.55;6.70;;;2.70;92.30;;;;;;5034305;28;20032;-50
2023/03/12 12:59:32;;;;;;;9.48;7.15;;;2.70;92.40;;;;;;5034471;28;20478;-49
2023/03/12 13:02:10;;;;;;;7.38;6.63;;;2.70;92.30;;;;;;5034744;28;20039;-50
2023/03/12 13:04:38;;;;;;;7.65;6.85;;;2.80;92.50;;;;;;5034377;28;20028;-54
2023/03/12 13:07:22;;;;;;;8.40;7.22;;;2.80;92.50;;;;;;5033051;28;20120;-49
2023/03/12 13:09:54;;;;;;;9.50;7.68;;;2.80;92.50;;;;;;5034000;28;20100;-51
2023/03/12 13:12:28;;;;;;;11.02;8.27;;;2.90;92.60;;;;;;5037201;28;20049;-51
2023/03/12 13:14:56;;;;;;;9.10;7.50;;;2.90;92.60;;;;;;5054553;28;20033;-47